ROMMA est une association bénévole à but non lucratif. Votre soutien est indispensable : ADHERER à ROMMA ou FAIRE un DON

Nice - (06, Alpes-Maritimes)

Côte-d'Azur (190 m)   Longitude: 07° 14' E   Latitude: 43° 43' N Station partenaire n°136
 

Détail journalier du     <<     >>

Température Precipitation Humidité Pression Vent Dir Rafale Dir. rafale Ensol.
Heure (°C) (mm) (%) (hPa) (km/h) (km/h) (min)
01:00 14.708110233NNO11NNO0
02:00 15.307910234N13NNO0
03:00 14.908010232N8N0
04:00 15.707710235NNO15NNO0
05:00 15.107910224NNO15NNO0
06:00 15.907710225NNO18NNO0
07:00 16.207610225NNO18NNO0
08:00 15.307810224NNO16N0
09:00 17.307310236NNO19NNO10
10:00 19.306810233N15NNO50
11:00 21.206310233NNE11S50
12:00 23.106510237ESE16ESE60
13:00 23.6065102310ESE21ESE60
14:00 23.0068102212ESE26ESE60
15:00 22.6071102212ESE27ESE60
16:00 21.6075102213ESE29ESE60
17:00 20.8078102211ESE24ESE30
18:00 20.208110219ESE19ESE50
19:00 19.008410218ESE18SE20
20:00 19.308210225ESE15ESE0
21:00 19.108110223ESE11ESE0
22:00 19.307910222E13ESE0
23:00 19.307810224E19ESE0
minuit 18.508210221---8NNO0

Graphique du 13-10-2019

 

Serveur OMMA